createdAt,value
2022-09-17T00:00:44.701Z,8.30
2022-09-17T00:03:11.432Z,8.40
2022-09-17T00:05:38.185Z,8.40
2022-09-17T00:08:06.300Z,8.40
2022-09-17T00:10:35.634Z,8.50
2022-09-17T00:13:02.295Z,8.50
2022-09-17T00:15:29.245Z,8.50
2022-09-17T00:17:57.964Z,8.50
2022-09-17T00:20:26.265Z,8.60
2022-09-17T00:22:53.971Z,8.60
2022-09-17T00:25:21.034Z,8.60
2022-09-17T00:27:47.750Z,8.60
2022-09-17T00:30:14.489Z,8.60
2022-09-17T00:32:41.201Z,8.60
2022-09-17T00:35:08.155Z,8.60
2022-09-17T00:37:34.828Z,8.60
2022-09-17T00:40:01.792Z,8.60
2022-09-17T00:42:28.544Z,8.60
2022-09-17T00:44:57.098Z,8.60
2022-09-17T00:47:33.740Z,8.70
2022-09-17T00:50:07.288Z,8.70
2022-09-17T00:52:41.884Z,8.70
2022-09-17T00:55:22.154Z,8.60
2022-09-17T00:57:51.772Z,8.60
2022-09-17T01:00:19.084Z,8.60
2022-09-17T01:02:45.744Z,8.60
2022-09-17T01:05:12.940Z,8.60
2022-09-17T01:08:01.375Z,8.50
2022-09-17T01:10:50.348Z,8.60
2022-09-17T01:13:57.709Z,8.50
2022-09-17T01:16:49.006Z,8.60
2022-09-17T01:19:21.402Z,8.50
2022-09-17T01:22:13.001Z,8.50
2022-09-17T01:24:50.506Z,8.50
2022-09-17T01:27:45.661Z,8.50
2022-09-17T01:30:17.550Z,8.60
2022-09-17T01:32:59.480Z,8.50
2022-09-17T01:35:43.389Z,8.50
2022-09-17T01:38:15.816Z,8.50
2022-09-17T01:40:47.815Z,8.50
2022-09-17T01:43:27.745Z,8.50
2022-09-17T01:45:59.437Z,8.50
2022-09-17T01:48:29.738Z,8.50
2022-09-17T01:51:08.963Z,8.50
2022-09-17T01:53:41.277Z,8.50
2022-09-17T01:56:10.554Z,8.50
2022-09-17T01:58:42.794Z,8.50
2022-09-17T02:01:11.104Z,8.50
2022-09-17T02:03:42.441Z,8.50
2022-09-17T02:06:14.920Z,8.50
2022-09-17T02:09:02.919Z,8.50
2022-09-17T02:11:29.576Z,8.50
2022-09-17T02:14:10.364Z,8.50
2022-09-17T02:16:39.720Z,8.40
2022-09-17T02:19:10.558Z,8.40
2022-09-17T02:21:58.350Z,8.40
2022-09-17T02:24:27.369Z,8.40
2022-09-17T02:27:03.047Z,8.40
2022-09-17T02:29:34.992Z,8.40
2022-09-17T02:32:02.021Z,8.40
2022-09-17T02:34:29.487Z,8.30
2022-09-17T02:36:58.437Z,8.30
2022-09-17T02:39:25.685Z,8.30
2022-09-17T02:42:10.869Z,8.30
2022-09-17T02:44:57.122Z,8.20
2022-09-17T02:47:46.492Z,8.20
2022-09-17T02:50:38.292Z,8.10
2022-09-17T02:53:05.149Z,8.10
2022-09-17T02:55:43.078Z,8.00
2022-09-17T02:58:32.677Z,8.00
2022-09-17T03:01:04.941Z,7.90
2022-09-17T03:03:38.108Z,7.90
2022-09-17T03:06:05.796Z,7.90
2022-09-17T03:08:35.046Z,7.80
2022-09-17T03:11:01.725Z,7.90
2022-09-17T03:13:28.725Z,7.80
2022-09-17T03:15:55.579Z,7.90
2022-09-17T03:18:22.270Z,7.80
2022-09-17T03:20:48.906Z,7.90
2022-09-17T03:23:16.260Z,7.80
2022-09-17T03:25:42.908Z,7.90
2022-09-17T03:28:09.647Z,7.90
2022-09-17T03:30:36.295Z,7.90
2022-09-17T03:33:03.031Z,7.90
2022-09-17T03:35:29.669Z,7.90
2022-09-17T03:37:56.355Z,8.00
2022-09-17T03:40:23.082Z,8.00
2022-09-17T03:42:49.755Z,8.00
2022-09-17T03:45:16.512Z,8.00
2022-09-17T03:47:43.238Z,8.00
2022-09-17T03:50:09.998Z,8.00
2022-09-17T03:52:36.790Z,8.10
2022-09-17T03:55:04.022Z,8.10
2022-09-17T03:57:30.904Z,8.10
2022-09-17T03:59:57.639Z,8.10
2022-09-17T04:02:24.471Z,8.00
2022-09-17T04:04:54.021Z,8.00
2022-09-17T04:07:20.865Z,8.00
2022-09-17T04:09:47.519Z,8.00
2022-09-17T04:12:14.227Z,8.00
2022-09-17T04:14:40.867Z,8.00
2022-09-17T04:17:07.522Z,8.00
2022-09-17T04:19:34.160Z,8.00
2022-09-17T04:22:00.873Z,8.00
2022-09-17T04:24:27.729Z,8.00
2022-09-17T04:26:54.381Z,7.90
2022-09-17T04:29:21.029Z,8.00
2022-09-17T04:31:47.742Z,7.90
2022-09-17T04:34:14.440Z,7.90
2022-09-17T04:36:41.147Z,7.80
2022-09-17T04:39:09.209Z,7.80
2022-09-17T04:41:35.852Z,7.80
2022-09-17T04:44:02.615Z,7.80
2022-09-17T04:46:30.114Z,7.80
2022-09-17T04:48:56.900Z,7.80
2022-09-17T04:51:23.548Z,7.80
2022-09-17T04:53:50.165Z,7.80
2022-09-17T04:56:16.816Z,7.80
2022-09-17T04:58:43.520Z,7.80
2022-09-17T05:01:10.191Z,7.90
2022-09-17T05:03:36.924Z,7.90
2022-09-17T05:06:03.813Z,7.90
2022-09-17T05:08:30.638Z,7.90
2022-09-17T05:10:57.626Z,7.90
2022-09-17T05:13:24.324Z,7.90
2022-09-17T05:15:51.227Z,7.90
2022-09-17T05:18:18.030Z,7.90
2022-09-17T05:20:44.774Z,7.90
2022-09-17T05:23:11.411Z,7.90
2022-09-17T05:25:38.047Z,7.90
2022-09-17T05:28:05.828Z,7.90
2022-09-17T05:30:32.585Z,7.90
2022-09-17T05:33:01.100Z,7.90
2022-09-17T05:35:27.927Z,7.90
2022-09-17T05:38:02.034Z,7.90
2022-09-17T05:40:29.163Z,7.80
2022-09-17T05:42:59.956Z,7.80
2022-09-17T05:45:26.718Z,7.80
2022-09-17T05:48:00.573Z,7.80
2022-09-17T05:50:28.524Z,7.80
2022-09-17T05:52:55.606Z,7.80
2022-09-17T05:55:23.720Z,7.80
2022-09-17T05:57:51.109Z,7.80
2022-09-17T06:00:18.773Z,7.90
2022-09-17T06:02:45.530Z,7.90
2022-09-17T06:05:12.237Z,7.90
2022-09-17T06:07:39.210Z,7.90
2022-09-17T06:10:08.221Z,7.80
2022-09-17T06:12:35.606Z,7.80
2022-09-17T06:15:03.888Z,7.90
2022-09-17T06:17:36.362Z,7.90
2022-09-17T06:20:05.150Z,7.90
2022-09-17T06:22:31.877Z,7.90
2022-09-17T06:24:59.791Z,7.80
2022-09-17T06:27:32.199Z,7.70
2022-09-17T06:29:59.157Z,7.70
2022-09-17T06:32:25.897Z,7.70
2022-09-17T06:34:52.734Z,7.60
2022-09-17T06:37:19.582Z,7.50
2022-09-17T06:39:46.377Z,7.40
2022-09-17T06:42:13.026Z,7.40
2022-09-17T06:44:40.881Z,7.40
2022-09-17T06:47:07.972Z,7.40
2022-09-17T06:49:34.773Z,7.40
2022-09-17T06:52:01.694Z,7.30
2022-09-17T06:54:28.345Z,7.30
2022-09-17T06:56:55.038Z,7.30
2022-09-17T06:59:21.735Z,7.30
2022-09-17T07:01:48.491Z,7.30
2022-09-17T07:04:17.394Z,7.30
2022-09-17T07:06:44.783Z,7.30
2022-09-17T07:09:12.181Z,7.30
2022-09-17T07:11:39.399Z,7.30
2022-09-17T07:14:06.936Z,7.30
2022-09-17T07:16:35.183Z,7.30
2022-09-17T07:19:03.630Z,7.30
2022-09-17T07:21:30.437Z,7.30
2022-09-17T07:23:57.241Z,7.30
2022-09-17T07:26:23.998Z,7.30
2022-09-17T07:28:50.635Z,7.30
2022-09-17T07:31:17.447Z,7.40
2022-09-17T07:33:44.864Z,7.40
2022-09-17T07:36:13.581Z,7.40
2022-09-17T07:38:40.298Z,7.50
2022-09-17T07:41:14.686Z,7.60
2022-09-17T07:43:42.111Z,7.60
2022-09-17T07:46:16.015Z,7.60
2022-09-17T07:48:42.809Z,7.70
2022-09-17T07:51:15.700Z,7.60
2022-09-17T07:53:42.436Z,7.60
2022-09-17T07:56:11.785Z,7.70
2022-09-17T07:58:38.827Z,7.70
2022-09-17T08:01:11.423Z,7.80
2022-09-17T08:03:39.827Z,7.90
2022-09-17T08:06:12.020Z,8.00
2022-09-17T08:08:39.655Z,8.00
2022-09-17T08:11:18.129Z,8.10
2022-09-17T08:13:52.091Z,8.20
2022-09-17T08:16:20.251Z,8.30
2022-09-17T08:18:47.887Z,8.40
2022-09-17T08:21:17.756Z,8.50
2022-09-17T08:23:45.599Z,8.60
2022-09-17T08:26:14.625Z,8.60
2022-09-17T08:28:57.434Z,8.50
2022-09-17T08:31:30.389Z,8.40
2022-09-17T08:33:57.396Z,8.40
2022-09-17T08:36:26.324Z,8.40
2022-09-17T08:38:54.432Z,8.40
2022-09-17T08:41:24.425Z,8.40
2022-09-17T08:44:15.247Z,8.40
2022-09-17T08:46:48.107Z,8.50
2022-09-17T08:49:33.858Z,8.60
2022-09-17T08:52:09.979Z,8.80
2022-09-17T08:54:39.279Z,8.90
2022-09-17T08:57:24.934Z,9.00
2022-09-17T09:00:02.074Z,9.00
2022-09-17T09:02:49.538Z,9.10
2022-09-17T09:05:19.883Z,9.10
2022-09-17T09:07:51.340Z,9.10
2022-09-17T09:10:27.895Z,9.10
2022-09-17T09:12:55.957Z,9.10
2022-09-17T09:15:42.239Z,9.20
2022-09-17T09:18:23.965Z,9.10
2022-09-17T09:20:51.736Z,9.10
2022-09-17T09:23:52.155Z,9.10
2022-09-17T09:26:23.860Z,9.20
2022-09-17T09:29:04.347Z,9.20
2022-09-17T09:32:09.368Z,9.30
2022-09-17T09:34:42.635Z,9.50
2022-09-17T09:37:14.706Z,9.70
2022-09-17T09:39:45.919Z,9.80
2022-09-17T09:42:36.626Z,10.00
2022-09-17T09:45:13.703Z,10.20
2022-09-17T09:48:05.465Z,10.30
2022-09-17T09:50:54.724Z,10.50
2022-09-17T09:53:54.880Z,10.60
2022-09-17T09:56:24.434Z,10.60
2022-09-17T09:58:51.157Z,10.70
2022-09-17T10:01:20.639Z,10.80
2022-09-17T10:03:48.688Z,10.90
2022-09-17T10:06:16.874Z,11.00
2022-09-17T10:09:03.878Z,11.20
2022-09-17T10:11:35.571Z,11.50
2022-09-17T10:14:16.568Z,11.60
2022-09-17T10:16:43.319Z,11.60
2022-09-17T10:19:09.910Z,11.50
2022-09-17T10:21:42.343Z,11.30
2022-09-17T10:24:25.318Z,11.10
2022-09-17T10:26:53.139Z,11.10
2022-09-17T10:29:21.045Z,11.10
2022-09-17T10:31:58.142Z,11.10
2022-09-17T10:34:26.960Z,11.00
2022-09-17T10:36:56.036Z,10.90
2022-09-17T10:39:44.454Z,10.80
2022-09-17T10:42:18.919Z,10.80
2022-09-17T10:44:56.849Z,10.80
2022-09-17T10:47:37.505Z,10.80
2022-09-17T10:50:07.935Z,10.90
2022-09-17T10:52:42.213Z,10.90
2022-09-17T10:55:34.983Z,11.00
2022-09-17T10:58:09.125Z,11.00
2022-09-17T11:00:44.322Z,11.00
2022-09-17T11:03:38.487Z,11.00
2022-09-17T11:06:39.978Z,11.20
2022-09-17T11:09:22.591Z,11.40
2022-09-17T11:12:10.507Z,11.60
2022-09-17T11:14:52.226Z,11.80
2022-09-17T11:17:37.486Z,12.20
2022-09-17T11:20:12.356Z,12.40
2022-09-17T11:23:01.605Z,12.50
2022-09-17T11:25:34.378Z,12.60
2022-09-17T11:28:24.487Z,12.70
2022-09-17T11:31:00.833Z,12.90
2022-09-17T11:34:05.934Z,13.10
2022-09-17T11:36:53.354Z,13.00
2022-09-17T11:39:49.693Z,12.60
2022-09-17T11:42:30.872Z,12.10
2022-09-17T11:45:18.851Z,11.90
2022-09-17T11:47:53.946Z,11.90
2022-09-17T11:50:25.106Z,11.90
2022-09-17T11:53:23.461Z,11.90
2022-09-17T11:56:00.337Z,12.10
2022-09-17T11:58:48.227Z,12.20
2022-09-17T12:01:38.983Z,12.30
2022-09-17T12:04:32.370Z,12.30
2022-09-17T12:07:41.547Z,12.30
2022-09-17T12:13:48.445Z,12.50
2022-09-17T12:16:24.164Z,12.80
2022-09-17T12:19:04.219Z,13.00
2022-09-17T12:21:42.454Z,13.10
2022-09-17T12:24:30.056Z,13.00
2022-09-17T12:27:21.951Z,12.80
2022-09-17T12:29:58.217Z,12.50
2022-09-17T12:32:54.324Z,12.00
2022-09-17T12:36:03.093Z,11.40
2022-09-17T12:38:49.872Z,10.70
2022-09-17T12:41:21.019Z,10.00
2022-09-17T12:47:10.719Z,9.40
2022-09-17T12:49:56.236Z,9.20
2022-09-17T12:52:54.099Z,9.10
2022-09-17T12:55:43.472Z,9.20
2022-09-17T12:58:44.390Z,9.30
2022-09-17T13:01:28.511Z,9.30
2022-09-17T13:04:20.568Z,9.40
2022-09-17T13:06:56.550Z,9.50
2022-09-17T13:10:23.509Z,9.50
2022-09-17T13:12:57.515Z,9.70
2022-09-17T13:15:43.953Z,9.90
2022-09-17T13:18:26.529Z,10.00
2022-09-17T13:21:05.545Z,10.30
2022-09-17T13:23:42.075Z,10.50
2022-09-17T13:26:19.334Z,10.90
2022-09-17T13:28:48.881Z,10.90
2022-09-17T13:31:34.443Z,11.00
2022-09-17T13:34:02.754Z,11.20
2022-09-17T13:36:46.216Z,11.20
2022-09-17T13:39:31.843Z,11.20
2022-09-17T13:42:27.765Z,11.30
2022-09-17T13:45:18.835Z,11.30
2022-09-17T13:48:08.430Z,11.40
2022-09-17T13:50:35.886Z,11.40
2022-09-17T13:53:17.863Z,11.40
2022-09-17T13:55:48.242Z,11.40
2022-09-17T13:58:21.512Z,11.40
2022-09-17T14:00:51.463Z,11.30
2022-09-17T14:03:53.859Z,11.20
2022-09-17T14:06:24.634Z,11.20
2022-09-17T14:08:54.552Z,11.20
2022-09-17T14:11:28.413Z,11.30
2022-09-17T14:14:04.226Z,11.40
2022-09-17T14:16:36.900Z,11.50
2022-09-17T14:19:33.473Z,11.60
2022-09-17T14:22:06.476Z,11.60
2022-09-17T14:24:42.938Z,11.80
2022-09-17T14:27:50.982Z,11.70
2022-09-17T14:30:31.727Z,11.50
2022-09-17T14:33:08.402Z,11.30
2022-09-17T14:35:46.033Z,11.10
2022-09-17T14:38:32.149Z,11.00
2022-09-17T14:41:11.182Z,10.90
2022-09-17T14:44:02.864Z,10.80
2022-09-17T14:46:44.208Z,10.60
2022-09-17T14:49:26.350Z,10.60
2022-09-17T14:51:54.412Z,10.60
2022-09-17T14:54:23.404Z,10.50
2022-09-17T14:56:53.494Z,10.50
2022-09-17T15:00:01.529Z,10.50
2022-09-17T15:02:34.414Z,10.60
2022-09-17T15:05:03.795Z,10.80
2022-09-17T15:07:30.488Z,10.90
2022-09-17T15:10:12.927Z,11.00
2022-09-17T15:12:39.785Z,11.00
2022-09-17T15:15:10.048Z,11.10
2022-09-17T15:17:37.073Z,11.00
2022-09-17T15:20:07.745Z,10.90
2022-09-17T15:22:37.842Z,10.90
2022-09-17T15:25:10.599Z,10.80
2022-09-17T15:27:42.834Z,10.70
2022-09-17T15:30:24.127Z,10.70
2022-09-17T15:32:58.970Z,10.80
2022-09-17T15:35:44.573Z,10.80
2022-09-17T15:38:26.226Z,10.80
2022-09-17T15:40:53.144Z,10.70
2022-09-17T15:43:30.951Z,10.70
2022-09-17T15:46:01.514Z,10.70
2022-09-17T15:48:28.137Z,10.70
2022-09-17T15:50:59.457Z,10.80
2022-09-17T15:53:31.033Z,10.90
2022-09-17T15:56:06.764Z,11.00
2022-09-17T15:58:42.782Z,11.10
2022-09-17T16:01:15.614Z,11.10
2022-09-17T16:03:43.428Z,11.00
2022-09-17T16:06:19.310Z,11.00
2022-09-17T16:08:56.915Z,10.90
2022-09-17T16:11:25.322Z,10.90
2022-09-17T16:13:53.975Z,10.80
2022-09-17T16:16:31.160Z,10.60
2022-09-17T16:18:58.225Z,10.50
2022-09-17T16:21:25.191Z,10.40
2022-09-17T16:23:53.977Z,10.30
2022-09-17T16:26:23.785Z,10.20
2022-09-17T16:28:55.845Z,10.20
2022-09-17T16:31:22.753Z,10.20
2022-09-17T16:33:50.011Z,10.20
2022-09-17T16:36:17.407Z,10.20
2022-09-17T16:38:44.073Z,10.20
2022-09-17T16:41:11.481Z,10.10
2022-09-17T16:43:40.136Z,10.10
2022-09-17T16:46:08.766Z,10.00
2022-09-17T16:48:35.537Z,9.90
2022-09-17T16:51:07.651Z,9.80
2022-09-17T16:53:34.786Z,9.70
2022-09-17T16:56:05.049Z,9.70
2022-09-17T16:58:31.735Z,9.60
2022-09-17T17:00:58.741Z,9.50
2022-09-17T17:03:25.782Z,9.40
2022-09-17T17:05:52.434Z,9.40
2022-09-17T17:08:19.224Z,9.40
2022-09-17T17:10:50.016Z,9.30
2022-09-17T17:13:16.846Z,9.20
2022-09-17T17:15:46.535Z,9.20
2022-09-17T17:18:13.431Z,9.10
2022-09-17T17:20:40.085Z,9.10
2022-09-17T17:23:06.826Z,9.10
2022-09-17T17:25:33.566Z,9.00
2022-09-17T17:28:00.331Z,9.00
2022-09-17T17:30:31.726Z,9.00
2022-09-17T17:33:03.821Z,8.90
2022-09-17T17:35:30.768Z,8.90
2022-09-17T17:37:57.444Z,8.90
2022-09-17T17:40:24.166Z,8.80
2022-09-17T17:42:54.713Z,8.80
2022-09-17T17:45:21.848Z,8.70
2022-09-17T17:47:48.814Z,8.70
2022-09-17T17:50:15.868Z,8.70
2022-09-17T17:52:47.800Z,8.70
2022-09-17T17:55:15.966Z,8.70
2022-09-17T17:57:42.711Z,8.70
2022-09-17T18:00:11.797Z,8.70
2022-09-17T18:02:39.062Z,8.70
2022-09-17T18:05:06.184Z,8.70
2022-09-17T18:07:33.536Z,8.70
2022-09-17T18:10:00.334Z,8.70
2022-09-17T18:12:27.316Z,8.80
2022-09-17T18:14:54.245Z,8.80
2022-09-17T18:17:21.184Z,8.80
2022-09-17T18:19:47.821Z,8.80
2022-09-17T18:22:14.471Z,8.80
2022-09-17T18:24:41.122Z,8.70
2022-09-17T18:27:07.922Z,8.80
2022-09-17T18:29:34.695Z,8.80
2022-09-17T18:32:01.650Z,8.80
2022-09-17T18:34:28.400Z,8.80
2022-09-17T18:36:55.321Z,8.80
2022-09-17T18:42:11.755Z,8.80
2022-09-17T18:44:38.365Z,8.80
2022-09-17T18:47:11.821Z,8.80
2022-09-17T18:49:39.109Z,8.80
2022-09-17T18:52:05.786Z,8.80
2022-09-17T18:54:32.562Z,8.80
2022-09-17T18:56:59.211Z,8.80
2022-09-17T18:59:25.927Z,8.50
2022-09-17T19:01:52.632Z,7.50
2022-09-17T19:04:19.330Z,7.00
2022-09-17T19:06:46.168Z,6.70
2022-09-17T19:09:14.951Z,6.60
2022-09-17T19:11:45.019Z,6.50
2022-09-17T19:14:12.568Z,6.40
2022-09-17T19:16:39.446Z,6.30
2022-09-17T19:19:06.543Z,6.20
2022-09-17T19:21:33.261Z,6.20
2022-09-17T19:23:59.992Z,6.10
2022-09-17T19:26:27.320Z,6.10
2022-09-17T19:28:55.529Z,6.10
2022-09-17T19:31:22.442Z,6.10
2022-09-17T19:33:50.493Z,6.10
2022-09-17T19:36:18.453Z,6.10
2022-09-17T19:38:46.000Z,6.20
2022-09-17T19:41:18.395Z,6.30
2022-09-17T19:43:45.680Z,6.40
2022-09-17T19:46:14.718Z,6.50
2022-09-17T19:48:45.947Z,6.70
2022-09-17T19:51:13.034Z,6.80
2022-09-17T19:53:39.747Z,6.90
2022-09-17T19:56:07.393Z,7.00
2022-09-17T19:58:34.033Z,7.10
2022-09-17T20:01:00.641Z,7.20
2022-09-17T20:03:27.731Z,7.30
2022-09-17T20:06:01.730Z,7.40
2022-09-17T20:08:28.882Z,7.40
2022-09-17T20:10:55.847Z,7.50
2022-09-17T20:13:23.186Z,7.50
2022-09-17T20:15:49.953Z,7.60
2022-09-17T20:18:19.921Z,7.60
2022-09-17T20:20:49.987Z,7.60
2022-09-17T20:23:16.637Z,7.70
2022-09-17T20:25:44.588Z,7.70
2022-09-17T20:28:11.253Z,7.70
2022-09-17T20:30:37.868Z,7.80
2022-09-17T20:33:04.514Z,7.80
2022-09-17T20:35:31.143Z,7.80
2022-09-17T20:40:44.439Z,7.90
2022-09-17T20:43:11.271Z,7.90
2022-09-17T20:45:37.897Z,7.90
2022-09-17T20:48:04.572Z,7.90
2022-09-17T20:50:31.222Z,7.90
2022-09-17T20:52:57.858Z,7.90
2022-09-17T20:55:24.562Z,8.00
2022-09-17T20:57:53.743Z,7.90
2022-09-17T21:00:21.466Z,7.90
2022-09-17T21:02:54.107Z,7.90
2022-09-17T21:05:20.745Z,7.90
2022-09-17T21:07:47.568Z,7.90
2022-09-17T21:10:14.311Z,7.90
2022-09-17T21:12:40.970Z,7.80
2022-09-17T21:15:07.982Z,7.80
2022-09-17T21:17:34.667Z,7.80
2022-09-17T21:20:01.940Z,7.80
2022-09-17T21:22:28.665Z,7.80
2022-09-17T21:24:55.283Z,7.80
2022-09-17T21:27:22.082Z,7.80
2022-09-17T21:29:48.683Z,7.70
2022-09-17T21:32:15.338Z,7.70
2022-09-17T21:34:42.033Z,7.70
2022-09-17T21:37:08.643Z,7.70
2022-09-17T21:39:35.627Z,7.70
2022-09-17T21:42:02.430Z,7.70
2022-09-17T21:44:29.140Z,7.70
2022-09-17T21:46:57.748Z,7.80
2022-09-17T21:49:24.954Z,7.80
2022-09-17T21:51:51.656Z,7.80
2022-09-17T21:54:18.835Z,7.80
2022-09-17T21:56:46.418Z,7.80
2022-09-17T21:59:14.710Z,7.70
2022-09-17T22:01:46.053Z,7.70
2022-09-17T22:04:15.537Z,7.70
2022-09-17T22:06:42.382Z,7.70
2022-09-17T22:09:17.481Z,7.70
2022-09-17T22:11:44.265Z,7.80
2022-09-17T22:14:13.563Z,7.80
2022-09-17T22:16:43.193Z,7.80
2022-09-17T22:19:11.434Z,7.80
2022-09-17T22:21:40.641Z,7.70
2022-09-17T22:24:08.254Z,7.70
2022-09-17T22:26:37.791Z,7.70
2022-09-17T22:29:09.472Z,7.70
2022-09-17T22:31:36.683Z,7.70
2022-09-17T22:34:10.868Z,7.70
2022-09-17T22:36:37.837Z,7.70
2022-09-17T22:39:05.221Z,7.70
2022-09-17T22:41:36.031Z,7.80
2022-09-17T22:44:05.000Z,7.80
2022-09-17T22:46:36.881Z,7.80
2022-09-17T22:49:03.610Z,7.80
2022-09-17T22:51:30.835Z,7.80
2022-09-17T22:53:59.224Z,7.80
2022-09-17T22:56:27.364Z,7.90
2022-09-17T22:58:55.495Z,7.90
2022-09-17T23:01:31.075Z,7.90
2022-09-17T23:03:58.820Z,7.90
2022-09-17T23:06:28.046Z,7.90
2022-09-17T23:08:55.230Z,7.90
2022-09-17T23:11:27.626Z,7.90
2022-09-17T23:14:02.024Z,7.90
2022-09-17T23:16:29.469Z,7.90
2022-09-17T23:18:57.142Z,7.90
2022-09-17T23:21:23.871Z,7.90
2022-09-17T23:23:51.136Z,8.00
2022-09-17T23:26:23.785Z,8.00
2022-09-17T23:28:51.078Z,8.00
2022-09-17T23:31:26.009Z,8.00
2022-09-17T23:33:53.188Z,8.00
2022-09-17T23:36:25.514Z,8.00
2022-09-17T23:38:52.747Z,8.00
2022-09-17T23:41:22.286Z,8.00
2022-09-17T23:43:51.284Z,8.00
2022-09-17T23:46:18.841Z,8.00
2022-09-17T23:48:46.094Z,8.00
2022-09-17T23:51:13.240Z,8.00
2022-09-17T23:53:40.445Z,8.00
2022-09-17T23:56:11.880Z,8.00
2022-09-17T23:58:38.833Z,8.00
